Time;durP1;ratioP1;P1;durP2;ratioP2;P2;SDS_P1;SDS_P2;PMS_P1;PMS_P2;Temp;Humidity;BMP_temperature;BMP_pressure;BME280_temperature;BME280_humidity;BME280_pressure;Samples;Min_cycle;Max_cycle;Signal;HPM_P1;HPM_P2
2024/01/12 00:00:36;;;;;;;33.17;19.77;;;2.70;99.90;;;;;;5059900;28;20028;-85
2024/01/12 00:03:02;;;;;;;30.77;18.25;;;2.60;99.90;;;;;;5076675;28;20116;-84
2024/01/12 00:05:28;;;;;;;33.15;19.08;;;2.60;99.90;;;;;;5060275;28;20067;-85
2024/01/12 00:07:54;;;;;;;30.45;18.48;;;2.60;99.90;;;;;;5060218;28;20063;-84
2024/01/12 00:10:20;;;;;;;35.45;20.02;;;2.60;99.90;;;;;;5077386;28;20039;-85
2024/01/12 00:12:45;;;;;;;31.35;17.50;;;2.60;99.90;;;;;;5060664;28;20453;-85
2024/01/12 00:15:11;;;;;;;31.55;17.92;;;2.60;99.90;;;;;;5078728;28;20035;-85
2024/01/12 00:17:37;;;;;;;30.88;19.33;;;2.60;99.90;;;;;;5059179;28;20135;-85
2024/01/12 00:20:06;;;;;;;33.00;17.90;;;2.60;99.90;;;;;;5075202;28;20029;-85
2024/01/12 00:22:31;;;;;;;34.83;20.20;;;2.60;99.90;;;;;;5058758;28;20119;-85
2024/01/12 00:24:57;;;;;;;32.85;18.98;;;2.70;99.90;;;;;;5058892;28;20116;-85
2024/01/12 00:27:22;;;;;;;35.15;19.77;;;2.60;99.90;;;;;;5075773;28;20029;-84
2024/01/12 00:29:48;;;;;;;33.30;19.77;;;2.60;99.90;;;;;;5076113;28;20063;-85
2024/01/12 00:32:14;;;;;;;34.65;19.58;;;2.60;99.90;;;;;;5077177;28;20035;-86
2024/01/12 00:34:39;;;;;;;31.90;18.35;;;2.70;99.90;;;;;;5077459;28;20117;-86
2024/01/12 00:37:05;;;;;;;33.47;19.63;;;2.70;99.90;;;;;;5076490;28;20022;-83
2024/01/12 00:39:32;;;;;;;33.75;19.15;;;2.70;99.90;;;;;;5063995;28;20063;-83
2024/01/12 00:41:58;;;;;;;31.92;18.88;;;2.60;99.90;;;;;;5058779;28;20036;-85
2024/01/12 00:44:24;;;;;;;32.28;19.83;;;2.70;99.90;;;;;;5066826;28;20029;-85
2024/01/12 00:46:51;;;;;;;32.17;19.00;;;2.60;99.90;;;;;;5078163;28;20060;-85
2024/01/12 00:49:20;;;;;;;34.03;19.23;;;2.60;99.90;;;;;;5076272;28;20460;-84
2024/01/12 00:51:46;;;;;;;35.35;18.92;;;2.70;99.90;;;;;;5072964;28;20052;-84
2024/01/12 00:54:12;;;;;;;33.67;19.25;;;2.70;99.90;;;;;;5059341;28;20036;-85
2024/01/12 00:56:38;;;;;;;32.85;18.52;;;2.70;99.90;;;;;;5044769;28;20028;-85
2024/01/12 00:59:07;;;;;;;32.88;19.10;;;2.60;99.90;;;;;;5076283;28;20017;-86
2024/01/12 01:01:33;;;;;;;34.33;19.08;;;2.70;99.90;;;;;;5076691;28;20021;-84
2024/01/12 01:04:03;;;;;;;37.15;21.05;;;2.70;99.90;;;;;;5061475;28;20099;-85
2024/01/12 01:06:29;;;;;;;33.38;19.02;;;2.70;99.90;;;;;;5075842;28;20041;-85
2024/01/12 01:08:55;;;;;;;30.45;18.23;;;2.70;99.90;;;;;;5041905;28;20480;-84
2024/01/12 01:11:21;;;;;;;31.23;19.58;;;2.70;99.90;;;;;;5074324;28;20025;-84
2024/01/12 01:13:47;;;;;;;30.40;18.88;;;2.60;99.90;;;;;;5057724;28;20025;-85
2024/01/12 01:16:12;;;;;;;32.85;19.40;;;2.70;99.90;;;;;;5074028;28;20035;-85
2024/01/12 01:18:38;;;;;;;30.52;18.33;;;2.70;99.90;;;;;;5074073;28;20387;-85
2024/01/12 01:21:04;;;;;;;32.55;19.02;;;2.70;99.90;;;;;;5074036;28;20028;-84
2024/01/12 01:23:30;;;;;;;33.42;18.40;;;2.70;99.90;;;;;;5057200;28;20384;-85
2024/01/12 01:25:55;;;;;;;29.80;17.90;;;2.70;99.90;;;;;;5041003;28;20020;-85
2024/01/12 01:28:21;;;;;;;31.92;18.75;;;2.70;99.90;;;;;;5041135;28;20093;-85
2024/01/12 01:30:47;;;;;;;32.95;18.25;;;2.70;99.90;;;;;;5074168;28;20032;-85
2024/01/12 01:33:13;;;;;;;31.05;18.85;;;2.70;99.90;;;;;;5074561;28;20029;-86
2024/01/12 01:35:39;;;;;;;34.15;19.35;;;2.70;99.90;;;;;;5057837;28;20123;-86
2024/01/12 01:38:05;;;;;;;31.25;18.95;;;2.70;99.90;;;;;;5074588;28;20050;-86
2024/01/12 01:40:30;;;;;;;33.42;19.33;;;2.70;99.90;;;;;;5074713;28;20474;-87
2024/01/12 01:42:56;;;;;;;32.42;18.35;;;2.70;99.90;;;;;;5074253;28;20028;-86
2024/01/12 01:45:22;;;;;;;29.38;17.58;;;2.70;99.90;;;;;;5057780;28;20067;-86
2024/01/12 01:47:48;;;;;;;29.30;17.95;;;2.70;99.90;;;;;;5074033;28;20029;-86
2024/01/12 01:50:16;;;;;;;31.23;19.23;;;2.70;99.90;;;;;;5057763;28;20029;-85
2024/01/12 01:52:45;;;;;;;31.30;17.65;;;2.70;99.90;;;;;;5074816;28;20139;-86
2024/01/12 01:55:14;;;;;;;35.33;20.45;;;2.70;99.90;;;;;;5090017;28;20028;-86
2024/01/12 01:57:42;;;;;;;33.08;18.92;;;2.70;99.90;;;;;;5097779;28;20005;-85
2024/01/12 02:00:11;;;;;;;34.10;19.40;;;2.70;99.90;;;;;;5060957;28;20035;-86
2024/01/12 02:02:37;;;;;;;33.75;19.40;;;2.70;99.90;;;;;;5052538;28;20025;-86
2024/01/12 02:05:06;;;;;;;31.83;19.15;;;2.70;99.90;;;;;;5074978;28;20062;-86
2024/01/12 02:07:33;;;;;;;35.30;20.23;;;2.70;99.90;;;;;;5075060;28;20025;-85
2024/01/12 02:09:59;;;;;;;32.60;19.00;;;2.70;99.90;;;;;;5058003;28;20521;-86
2024/01/12 02:12:25;;;;;;;33.20;18.75;;;2.70;99.90;;;;;;5058264;28;20033;-86
2024/01/12 02:14:51;;;;;;;31.83;19.63;;;2.80;99.90;;;;;;5043875;28;20074;-86
2024/01/12 02:17:17;;;;;;;31.33;19.58;;;2.80;99.90;;;;;;5076758;28;20032;-86
2024/01/12 02:19:42;;;;;;;32.20;19.60;;;2.80;99.90;;;;;;5042278;28;20028;-84
2024/01/12 02:22:08;;;;;;;32.33;18.92;;;2.80;99.90;;;;;;5057817;28;20028;-85
2024/01/12 02:24:34;;;;;;;31.83;18.35;;;2.80;99.90;;;;;;5057669;28;20115;-85
2024/01/12 02:26:59;;;;;;;28.98;18.00;;;2.70;99.90;;;;;;5056951;28;20464;-85
2024/01/12 02:29:25;;;;;;;34.53;20.50;;;2.70;99.90;;;;;;5040233;28;20051;-85
2024/01/12 02:31:51;;;;;;;30.70;18.48;;;2.80;99.90;;;;;;5056493;28;20534;-85
2024/01/12 02:34:17;;;;;;;31.60;19.45;;;2.80;99.90;;;;;;5071848;28;20028;-85
2024/01/12 02:36:43;;;;;;;30.73;18.58;;;2.80;99.90;;;;;;5056428;28;20036;-86
2024/01/12 02:39:08;;;;;;;29.50;18.38;;;2.80;99.90;;;;;;5056109;28;20082;-86
2024/01/12 02:41:35;;;;;;;33.53;20.15;;;2.80;99.90;;;;;;5055692;28;20035;-86
2024/01/12 02:44:01;;;;;;;31.70;18.05;;;2.70;99.90;;;;;;5072417;28;20020;-86
2024/01/12 02:46:27;;;;;;;34.08;19.02;;;2.70;99.90;;;;;;5072710;28;20490;-86
2024/01/12 02:48:52;;;;;;;31.45;18.75;;;2.80;99.90;;;;;;5072339;28;20385;-85
2024/01/12 02:51:18;;;;;;;30.90;18.05;;;2.80;99.90;;;;;;5055451;28;20082;-86
2024/01/12 02:53:44;;;;;;;28.58;16.52;;;2.80;99.90;;;;;;5055977;28;20032;-85
2024/01/12 02:56:10;;;;;;;33.00;18.10;;;2.70;99.90;;;;;;5056467;28;20388;-86
2024/01/12 02:58:36;;;;;;;28.88;16.85;;;2.80;99.90;;;;;;5056821;28;20036;-85
2024/01/12 03:01:05;;;;;;;28.98;16.90;;;2.80;99.90;;;;;;5058299;28;20024;-86
2024/01/12 03:03:30;;;;;;;27.95;17.58;;;2.80;99.90;;;;;;5073254;28;20033;-85
2024/01/12 03:05:56;;;;;;;29.70;17.42;;;2.70;99.90;;;;;;5079155;28;20033;-85
2024/01/12 03:08:25;;;;;;;29.95;17.95;;;2.80;99.90;;;;;;5063610;28;20016;-85
2024/01/12 03:10:50;;;;;;;29.83;17.42;;;2.80;99.90;;;;;;5097076;28;20009;-84
2024/01/12 03:13:16;;;;;;;31.33;16.60;;;2.80;99.90;;;;;;5097869;28;20024;-85
2024/01/12 03:15:42;;;;;;;27.30;16.40;;;2.80;99.90;;;;;;5093924;28;20043;-86
2024/01/12 03:18:08;;;;;;;32.53;17.17;;;2.80;99.90;;;;;;5078637;28;20039;-86
2024/01/12 03:20:33;;;;;;;23.77;14.88;;;2.80;99.90;;;;;;5083886;28;20037;-86
2024/01/12 03:22:59;;;;;;;31.77;17.40;;;2.80;99.90;;;;;;5057473;28;20447;-86
2024/01/12 03:25:25;;;;;;;28.92;16.70;;;2.80;99.90;;;;;;5060154;28;20059;-86
2024/01/12 03:27:50;;;;;;;26.80;15.85;;;2.80;99.90;;;;;;5059618;28;20100;-86
2024/01/12 03:30:16;;;;;;;23.95;14.73;;;2.80;99.90;;;;;;5059496;28;20112;-86
2024/01/12 03:32:43;;;;;;;24.38;13.98;;;2.80;99.90;;;;;;5043292;28;20119;-85
2024/01/12 03:35:09;;;;;;;21.90;13.30;;;2.80;99.90;;;;;;5059630;28;20456;-85
2024/01/12 03:37:35;;;;;;;24.42;12.73;;;2.80;99.90;;;;;;5076324;28;20061;-86
2024/01/12 03:40:01;;;;;;;22.73;13.60;;;2.80;99.90;;;;;;5059419;28;20418;-86
2024/01/12 03:42:26;;;;;;;25.17;12.98;;;2.80;99.90;;;;;;5042797;28;20572;-86
2024/01/12 03:44:52;;;;;;;21.10;11.70;;;2.80;99.90;;;;;;5059225;28;20052;-86
2024/01/12 03:47:18;;;;;;;20.13;11.38;;;2.80;99.90;;;;;;5075867;28;20036;-86
2024/01/12 03:49:44;;;;;;;19.73;10.93;;;2.80;99.90;;;;;;5059414;28;20054;-86
2024/01/12 03:52:09;;;;;;;20.77;11.88;;;2.90;99.90;;;;;;5058890;28;20056;-86
2024/01/12 03:54:35;;;;;;;20.50;11.45;;;2.80;99.90;;;;;;5042786;28;20024;-86
2024/01/12 03:57:02;;;;;;;23.55;11.07;;;2.80;99.90;;;;;;5058937;28;20029;-86
2024/01/12 03:59:28;;;;;;;21.83;11.63;;;2.80;99.90;;;;;;5076683;28;20028;-86
2024/01/12 04:01:53;;;;;;;20.45;11.07;;;2.80;99.90;;;;;;5075773;28;20029;-86
2024/01/12 04:04:19;;;;;;;20.55;10.95;;;2.80;99.90;;;;;;5059089;28;20032;-86
2024/01/12 04:06:45;;;;;;;20.45;10.38;;;2.90;99.90;;;;;;5042299;28;20028;-86
2024/01/12 04:09:11;;;;;;;19.33;11.13;;;2.90;99.90;;;;;;5077173;28;20486;-86
2024/01/12 04:11:37;;;;;;;18.63;10.25;;;2.90;99.90;;;;;;5042653;28;20397;-86
2024/01/12 04:14:08;;;;;;;18.67;9.85;;;2.90;99.90;;;;;;5058900;28;20042;-86
2024/01/12 04:16:34;;;;;;;17.25;9.70;;;2.90;99.90;;;;;;5059214;28;20028;-86
2024/01/12 04:18:59;;;;;;;21.65;10.13;;;2.90;99.90;;;;;;5058966;28;20163;-86
2024/01/12 04:21:25;;;;;;;17.95;9.30;;;2.90;99.90;;;;;;5058953;28;20067;-86
2024/01/12 04:23:51;;;;;;;17.23;8.63;;;2.90;99.90;;;;;;5060524;28;20053;-86
2024/01/12 04:26:17;;;;;;;17.20;8.90;;;2.90;99.90;;;;;;5058704;28;20044;-86
2024/01/12 04:28:42;;;;;;;19.42;8.85;;;2.90;99.90;;;;;;5043782;28;20427;-86
2024/01/12 04:31:08;;;;;;;18.88;7.95;;;2.90;99.90;;;;;;5058051;28;20008;-85
2024/01/12 04:33:34;;;;;;;16.55;7.85;;;2.90;99.90;;;;;;5099647;28;20032;-85
2024/01/12 04:36:00;;;;;;;14.25;7.72;;;2.90;99.90;;;;;;5090635;28;20033;-86
2024/01/12 04:38:27;;;;;;;15.35;7.65;;;2.90;99.90;;;;;;5050203;28;20476;-86
2024/01/12 04:40:53;;;;;;;15.32;7.60;;;2.90;99.90;;;;;;5041964;28;20526;-86
2024/01/12 04:43:19;;;;;;;15.02;7.45;;;2.90;99.90;;;;;;5058257;28;20059;-86
2024/01/12 04:45:45;;;;;;;18.58;8.00;;;2.90;99.90;;;;;;5074544;28;20029;-86
2024/01/12 04:48:11;;;;;;;13.75;7.43;;;2.90;99.90;;;;;;5075765;28;20031;-86
2024/01/12 04:50:37;;;;;;;18.35;7.32;;;2.90;99.90;;;;;;5074703;28;20422;-86
2024/01/12 04:53:03;;;;;;;13.40;6.93;;;2.90;99.90;;;;;;5057314;28;20487;-86
2024/01/12 04:55:28;;;;;;;13.35;5.88;;;3.00;99.90;;;;;;5041004;28;20020;-86
2024/01/12 04:57:54;;;;;;;14.00;6.20;;;3.00;99.90;;;;;;5057705;28;20077;-87
2024/01/12 05:00:20;;;;;;;14.88;6.13;;;2.90;99.90;;;;;;5057752;28;20411;-86
2024/01/12 05:02:46;;;;;;;14.20;6.32;;;3.00;99.90;;;;;;5058015;28;20024;-86
2024/01/12 05:05:12;;;;;;;13.05;5.93;;;3.00;99.90;;;;;;5040950;28;20017;-86
2024/01/12 05:07:38;;;;;;;15.25;6.10;;;3.00;99.90;;;;;;5057626;28;20066;-84
2024/01/12 05:10:04;;;;;;;11.32;5.53;;;3.00;99.90;;;;;;5074281;28;20111;-85
2024/01/12 05:12:30;;;;;;;15.13;5.53;;;3.00;99.90;;;;;;5073955;28;20498;-84
2024/01/12 05:14:56;;;;;;;12.82;5.55;;;3.00;99.90;;;;;;5074133;28;20434;-85
2024/01/12 05:17:25;;;;;;;12.45;5.30;;;2.90;99.90;;;;;;5074481;28;20024;-85
2024/01/12 05:19:51;;;;;;;13.77;5.40;;;3.00;99.90;;;;;;5057810;28;20024;-85
2024/01/12 05:22:17;;;;;;;12.75;6.22;;;3.00;99.90;;;;;;5074540;28;20349;-85
2024/01/12 05:24:42;;;;;;;14.05;5.57;;;3.00;99.90;;;;;;5074466;28;20469;-84
2024/01/12 05:27:08;;;;;;;12.95;4.97;;;3.00;99.90;;;;;;5075471;28;20495;-85
2024/01/12 05:29:34;;;;;;;7.80;4.57;;;3.00;99.90;;;;;;5074262;28;20024;-85
2024/01/12 05:32:04;;;;;;;10.88;5.25;;;3.00;99.90;;;;;;5074330;28;20021;-85
2024/01/12 05:34:29;;;;;;;14.38;5.68;;;2.90;99.90;;;;;;5073848;28;20548;-85
2024/01/12 05:36:55;;;;;;;11.13;4.53;;;3.00;99.90;;;;;;5057736;28;20032;-85
2024/01/12 05:39:21;;;;;;;15.45;5.82;;;3.00;99.90;;;;;;5058305;28;20032;-86
2024/01/12 05:41:46;;;;;;;11.95;4.88;;;3.00;99.90;;;;;;5059673;28;20033;-86
2024/01/12 05:44:17;;;;;;;13.50;5.95;;;3.00;99.90;;;;;;5076441;28;20027;-86
2024/01/12 05:46:42;;;;;;;11.68;4.78;;;3.00;99.90;;;;;;5060326;28;20032;-86
2024/01/12 05:49:08;;;;;;;12.68;6.13;;;3.00;99.90;;;;;;5097987;28;20016;-84
2024/01/12 05:51:34;;;;;;;8.20;4.55;;;3.00;99.90;;;;;;5078969;28;20049;-85
2024/01/12 05:53:59;;;;;;;13.98;5.70;;;3.00;99.90;;;;;;5077877;28;20029;-85
2024/01/12 05:56:25;;;;;;;12.95;5.18;;;3.00;99.90;;;;;;5094257;28;20032;-86
2024/01/12 05:58:51;;;;;;;12.15;5.07;;;3.00;99.90;;;;;;5066660;28;20111;-85
2024/01/12 06:01:19;;;;;;;16.00;4.90;;;3.10;99.90;;;;;;5073882;28;20024;-86
2024/01/12 06:03:46;;;;;;;8.98;4.45;;;3.10;99.90;;;;;;5074403;28;20012;-86
2024/01/12 06:06:12;;;;;;;14.18;6.03;;;3.10;99.90;;;;;;5074582;28;20020;-85
2024/01/12 06:08:38;;;;;;;14.00;4.68;;;3.10;99.90;;;;;;5074587;28;20032;-86
2024/01/12 06:11:04;;;;;;;10.00;4.60;;;3.20;99.90;;;;;;5056555;28;20051;-85
2024/01/12 06:13:30;;;;;;;11.35;4.32;;;3.20;99.90;;;;;;5072723;28;20094;-84
2024/01/12 06:15:56;;;;;;;10.43;4.72;;;3.20;99.90;;;;;;5073921;28;20530;-85
2024/01/12 06:18:22;;;;;;;14.98;4.95;;;3.20;99.90;;;;;;5072716;28;20028;-84
2024/01/12 06:20:47;;;;;;;12.02;5.22;;;3.20;99.90;;;;;;5074634;28;20029;-85
2024/01/12 06:23:14;;;;;;;13.40;4.63;;;3.20;99.90;;;;;;5073872;28;20032;-85
2024/01/12 06:25:39;;;;;;;9.55;4.20;;;3.20;99.90;;;;;;5075027;28;20481;-90
2024/01/12 06:28:05;;;;;;;9.68;4.40;;;3.20;99.90;;;;;;5057330;28;20041;-93
2024/01/12 06:30:31;;;;;;;9.02;4.18;;;3.20;99.90;;;;;;5073189;28;20023;-85
2024/01/12 06:32:58;;;;;;;13.68;4.55;;;3.20;99.90;;;;;;5073968;28;20025;-85
2024/01/12 06:35:24;;;;;;;10.32;4.35;;;3.20;99.90;;;;;;5073031;28;20061;-86
2024/01/12 06:37:50;;;;;;;11.40;4.40;;;3.20;99.90;;;;;;5072937;28;20472;-85
2024/01/12 06:40:16;;;;;;;9.43;4.22;;;3.20;99.90;;;;;;5073956;28;20120;-86
2024/01/12 06:42:42;;;;;;;9.38;4.25;;;3.20;99.90;;;;;;5073610;28;20051;-83
2024/01/12 06:45:10;;;;;;;12.57;5.13;;;3.20;99.90;;;;;;5056549;28;20460;-87
2024/01/12 06:47:36;;;;;;;11.75;4.78;;;3.20;99.90;;;;;;5073677;28;20028;-87
2024/01/12 06:50:02;;;;;;;9.98;4.40;;;3.20;99.90;;;;;;5073487;28;20028;-86
2024/01/12 06:52:29;;;;;;;11.93;4.55;;;3.20;99.90;;;;;;5055922;28;20052;-86
2024/01/12 06:54:55;;;;;;;11.48;4.50;;;3.20;99.90;;;;;;5073294;28;20045;-87
2024/01/12 06:57:23;;;;;;;10.75;4.55;;;3.20;99.90;;;;;;5040053;28;20452;-86
2024/01/12 06:59:49;;;;;;;10.73;4.78;;;3.10;99.90;;;;;;5057217;28;20052;-86
2024/01/12 07:02:15;;;;;;;14.90;4.63;;;3.20;99.90;;;;;;5072894;28;20029;-84
2024/01/12 07:04:44;;;;;;;11.25;4.63;;;3.20;99.90;;;;;;5057358;28;20028;-88
2024/01/12 07:07:11;;;;;;;10.13;4.85;;;3.10;99.90;;;;;;5072769;28;20033;-88
2024/01/12 07:09:39;;;;;;;12.80;5.10;;;3.20;99.90;;;;;;5096632;28;20033;-86
2024/01/12 07:12:05;;;;;;;10.90;4.90;;;3.20;99.90;;;;;;5092666;28;20025;-86
2024/01/12 07:14:33;;;;;;;15.32;5.10;;;3.20;99.90;;;;;;5081370;28;20059;-86
2024/01/12 07:16:59;;;;;;;11.02;4.60;;;3.20;99.90;;;;;;5072703;28;20025;-87
2024/01/12 07:19:25;;;;;;;13.02;4.95;;;3.20;99.90;;;;;;5073505;28;20028;-85
2024/01/12 07:21:51;;;;;;;12.10;5.40;;;3.20;99.90;;;;;;5057468;28;20028;-86
2024/01/12 07:24:16;;;;;;;9.80;4.25;;;3.20;99.90;;;;;;5039261;28;20062;-87
2024/01/12 07:26:42;;;;;;;12.13;5.05;;;3.10;99.90;;;;;;5072681;28;20036;-86
2024/01/12 07:29:08;;;;;;;11.23;5.00;;;3.20;99.90;;;;;;5072874;28;20056;-86
2024/01/12 07:31:36;;;;;;;10.70;4.70;;;3.20;99.90;;;;;;5072771;28;20016;-87
2024/01/12 07:34:04;;;;;;;14.07;5.72;;;3.20;99.90;;;;;;5056866;28;20079;-85
2024/01/12 07:36:29;;;;;;;10.52;5.65;;;3.10;99.90;;;;;;5056826;28;20395;-85
2024/01/12 07:38:57;;;;;;;10.68;4.75;;;3.10;99.90;;;;;;5056412;28;20021;-85
2024/01/12 07:41:23;;;;;;;12.82;5.70;;;3.20;99.90;;;;;;5073200;28;20036;-92
2024/01/12 07:43:48;;;;;;;9.20;4.25;;;3.20;99.90;;;;;;5072677;28;20021;-87
2024/01/12 07:46:17;;;;;;;10.57;5.18;;;3.20;99.90;;;;;;5073546;28;20349;-86
2024/01/12 07:48:50;;;;;;;12.70;4.88;;;3.20;99.90;;;;;;5072275;28;20075;-86
2024/01/12 07:51:16;;;;;;;;;;;3.20;99.90;;;;;;5072636;28;20120;-86
2024/01/12 07:53:42;;;;;;;15.05;5.40;;;3.20;99.90;;;;;;5072513;28;19948;-86
2024/01/12 07:56:08;;;;;;;9.70;4.70;;;3.20;99.90;;;;;;5071860;28;20032;-87
2024/01/12 07:58:33;;;;;;;11.63;4.47;;;3.20;99.90;;;;;;5072471;28;20036;-87
2024/01/12 08:00:59;;;;;;;9.10;3.97;;;3.30;99.90;;;;;;5073003;28;20024;-86
2024/01/12 08:03:25;;;;;;;12.43;4.90;;;3.20;99.90;;;;;;5059571;28;20115;-86
2024/01/12 08:05:51;;;;;;;10.38;4.63;;;3.30;99.90;;;;;;5059041;28;20078;-86
2024/01/12 08:08:18;;;;;;;11.38;5.18;;;3.20;99.90;;;;;;5059865;28;20066;-86
2024/01/12 08:10:44;;;;;;;14.88;4.60;;;3.30;99.90;;;;;;5075918;28;20093;-87
2024/01/12 08:13:10;;;;;;;9.73;4.38;;;3.30;99.90;;;;;;5042865;28;20456;-86
2024/01/12 08:15:35;;;;;;;8.43;4.10;;;3.20;99.90;;;;;;5059525;28;20025;-86
2024/01/12 08:18:01;;;;;;;8.90;4.43;;;3.30;99.90;;;;;;5060398;28;20109;-86
2024/01/12 08:20:27;;;;;;;10.25;4.97;;;3.30;99.90;;;;;;5044040;28;20395;-85
2024/01/12 08:22:53;;;;;;;9.10;4.78;;;3.30;99.90;;;;;;5078093;28;20017;-86
2024/01/12 08:25:18;;;;;;;10.55;4.70;;;3.30;99.90;;;;;;5074555;28;20013;-84
2024/01/12 08:27:44;;;;;;;9.80;5.30;;;3.30;99.90;;;;;;5083246;28;20063;-84
2024/01/12 08:30:10;;;;;;;10.65;5.05;;;3.30;99.90;;;;;;5076267;28;20040;-85
2024/01/12 08:32:36;;;;;;;12.32;4.70;;;3.30;99.90;;;;;;5086112;28;20030;-86
2024/01/12 08:35:01;;;;;;;13.68;5.90;;;3.30;99.90;;;;;;5059824;28;20383;-85
2024/01/12 08:37:27;;;;;;;11.60;5.40;;;3.40;99.90;;;;;;5075926;28;20062;-85
2024/01/12 08:39:53;;;;;;;13.55;5.55;;;3.40;99.90;;;;;;5075709;28;20427;-84
2024/01/12 08:42:18;;;;;;;11.65;6.07;;;3.40;99.90;;;;;;5076221;28;20103;-86
2024/01/12 08:44:44;;;;;;;12.50;5.40;;;3.50;99.90;;;;;;5075688;28;20460;-85
2024/01/12 08:47:10;;;;;;;13.80;6.07;;;3.50;99.90;;;;;;5059025;28;20440;-85
2024/01/12 08:49:36;;;;;;;14.55;5.70;;;3.50;99.90;;;;;;5075692;28;20021;-85
2024/01/12 08:52:02;;;;;;;14.30;5.97;;;3.50;99.90;;;;;;5058110;28;20055;-85
2024/01/12 08:54:27;;;;;;;11.32;5.53;;;3.50;99.90;;;;;;5058873;28;20028;-86
2024/01/12 08:56:53;;;;;;;13.70;5.30;;;3.60;99.90;;;;;;5076168;28;20032;-86
2024/01/12 08:59:20;;;;;;;12.30;5.78;;;3.60;99.90;;;;;;5058935;28;20051;-85
2024/01/12 09:01:46;;;;;;;14.65;6.75;;;3.60;99.90;;;;;;5075723;28;20082;-85
2024/01/12 09:04:12;;;;;;;12.52;6.25;;;3.60;99.90;;;;;;5075326;28;20017;-85
2024/01/12 09:06:37;;;;;;;12.85;5.93;;;3.60;99.90;;;;;;5075413;28;20388;-85
2024/01/12 09:09:04;;;;;;;13.85;6.72;;;3.70;99.90;;;;;;5074908;28;20031;-84
2024/01/12 09:11:29;;;;;;;12.32;6.20;;;3.70;99.90;;;;;;5057973;28;20051;-87
2024/01/12 09:13:55;;;;;;;14.20;6.60;;;3.70;99.90;;;;;;5040273;28;20037;-85
2024/01/12 09:16:20;;;;;;;12.38;6.15;;;3.70;99.90;;;;;;5057773;28;20031;-84
2024/01/12 09:18:48;;;;;;;14.23;6.57;;;3.70;99.90;;;;;;5040958;28;20020;-85
2024/01/12 09:21:15;;;;;;;12.93;6.40;;;3.70;99.90;;;;;;5058289;28;20063;-85
2024/01/12 09:23:44;;;;;;;14.45;7.30;;;3.80;99.90;;;;;;5074971;28;20032;-84
2024/01/12 09:26:11;;;;;;;15.13;7.60;;;3.80;99.90;;;;;;5074258;28;20025;-84
2024/01/12 09:28:40;;;;;;;13.23;6.78;;;3.80;99.90;;;;;;5074649;28;20024;-84
2024/01/12 09:31:06;;;;;;;12.98;6.65;;;3.90;99.90;;;;;;5057926;28;20028;-84
2024/01/12 09:33:32;;;;;;;13.82;6.93;;;3.90;99.90;;;;;;5059238;28;20051;-85
2024/01/12 09:35:58;;;;;;;15.20;6.82;;;3.90;99.90;;;;;;5075167;28;20039;-84
2024/01/12 09:38:24;;;;;;;16.30;6.75;;;4.00;99.90;;;;;;5057681;28;20037;-84
2024/01/12 09:40:50;;;;;;;16.25;7.45;;;3.90;99.90;;;;;;5076842;28;20056;-84
2024/01/12 09:43:20;;;;;;;15.15;6.68;;;4.00;99.90;;;;;;5079156;28;20067;-85
2024/01/12 09:45:46;;;;;;;13.73;6.70;;;4.00;99.90;;;;;;5098406;28;20027;-84
2024/01/12 09:48:12;;;;;;;14.93;6.28;;;4.10;99.90;;;;;;5079086;28;20032;-86
2024/01/12 09:50:39;;;;;;;13.48;6.10;;;4.10;99.90;;;;;;5086334;28;20418;-86
2024/01/12 09:53:05;;;;;;;10.50;6.00;;;4.10;99.90;;;;;;5076509;28;20499;-86
2024/01/12 09:55:30;;;;;;;13.00;6.72;;;4.10;99.90;;;;;;5042331;28;20079;-85
2024/01/12 09:57:56;;;;;;;12.50;6.68;;;4.10;99.90;;;;;;5058206;28;20465;-85
2024/01/12 10:00:26;;;;;;;12.45;7.20;;;4.20;99.90;;;;;;5075114;28;20038;-85
2024/01/12 10:02:55;;;;;;;14.20;7.20;;;4.20;99.90;;;;;;5057753;28;20024;-84
2024/01/12 10:05:22;;;;;;;17.33;7.90;;;4.20;99.90;;;;;;5057609;28;20020;-86
2024/01/12 10:07:47;;;;;;;13.05;7.22;;;4.20;99.90;;;;;;5042668;28;20436;-85
2024/01/12 10:10:13;;;;;;;15.52;7.30;;;4.30;99.90;;;;;;5075813;28;20039;-86
2024/01/12 10:12:39;;;;;;;15.52;8.00;;;4.20;99.90;;;;;;5059004;28;20029;-85
2024/01/12 10:15:12;;;;;;;13.70;7.15;;;4.30;99.90;;;;;;5058622;28;20035;-86
2024/01/12 10:17:38;;;;;;;15.35;7.85;;;4.30;99.90;;;;;;5075237;28;20031;-87
2024/01/12 10:20:06;;;;;;;11.20;7.20;;;4.30;99.90;;;;;;5057899;28;20025;-87
2024/01/12 10:22:31;;;;;;;15.40;7.70;;;4.30;99.90;;;;;;5073377;28;20016;-86
2024/01/12 10:25:03;;;;;;;15.75;7.85;;;4.30;99.90;;;;;;5072575;28;20490;-87
2024/01/12 10:27:29;;;;;;;;;;;4.30;99.90;;;;;;5057702;28;20032;-84
2024/01/12 10:29:58;;;;;;;12.95;7.03;;;4.30;99.90;;;;;;5073793;28;20410;-83
2024/01/12 10:32:24;;;;;;;14.55;7.22;;;4.40;99.90;;;;;;5073749;28;20030;-85
2024/01/12 10:34:52;;;;;;;13.20;7.18;;;4.30;99.90;;;;;;5056355;28;20025;-84
2024/01/12 10:37:19;;;;;;;13.95;7.38;;;4.40;99.90;;;;;;5073401;28;20040;-85
2024/01/12 10:39:46;;;;;;;14.82;7.10;;;4.40;99.90;;;;;;5056750;28;20063;-84
2024/01/12 10:42:13;;;;;;;12.32;6.55;;;4.40;99.90;;;;;;5073147;28;20074;-86
2024/01/12 10:44:40;;;;;;;11.15;7.30;;;4.40;99.90;;;;;;5056644;28;20469;-85
2024/01/12 10:47:15;;;;;;;15.60;7.28;;;4.40;99.90;;;;;;5073194;28;20392;-86
2024/01/12 10:49:49;;;;;;;16.15;6.80;;;4.50;99.90;;;;;;5074545;28;20121;-85
2024/01/12 10:52:21;;;;;;;12.73;6.88;;;4.50;99.90;;;;;;5072789;28;20036;-85
2024/01/12 10:55:10;;;;;;;12.88;6.75;;;4.50;99.90;;;;;;5075004;28;20025;-85
2024/01/12 10:57:37;;;;;;;11.68;6.00;;;4.50;99.90;;;;;;5073359;28;20025;-86
2024/01/12 11:00:05;;;;;;;12.48;6.70;;;4.50;99.90;;;;;;5073862;28;20074;-86
2024/01/12 11:02:32;;;;;;;11.02;6.22;;;4.50;99.90;;;;;;5058144;28;20109;-86
2024/01/12 11:04:59;;;;;;;12.05;6.47;;;4.50;99.90;;;;;;5094122;28;20055;-85
2024/01/12 11:07:25;;;;;;;13.25;6.28;;;4.60;99.90;;;;;;5096721;28;20036;-85
2024/01/12 11:09:51;;;;;;;12.13;6.45;;;4.60;99.90;;;;;;5092468;28;20052;-83
2024/01/12 11:12:27;;;;;;;15.45;6.35;;;4.50;99.90;;;;;;5061017;28;20051;-86
2024/01/12 11:14:53;;;;;;;12.70;6.13;;;4.60;99.90;;;;;;5080283;28;20076;-85
2024/01/12 11:17:18;;;;;;;13.43;6.50;;;4.60;99.90;;;;;;5074361;28;20032;-84
2024/01/12 11:19:44;;;;;;;12.50;6.03;;;4.60;99.90;;;;;;5094515;28;20052;-85
2024/01/12 11:22:25;;;;;;;15.90;5.65;;;4.70;99.90;;;;;;5086278;28;20049;-85
2024/01/12 11:24:53;;;;;;;13.68;6.63;;;4.60;99.90;;;;;;5078924;28;20021;-84
2024/01/12 11:27:40;;;;;;;12.85;6.38;;;4.60;99.90;;;;;;5040943;28;20040;-84
2024/01/12 11:30:06;;;;;;;12.43;6.65;;;4.60;99.90;;;;;;5072650;28;20096;-83
2024/01/12 11:32:33;;;;;;;12.63;6.30;;;4.60;99.90;;;;;;5073285;28;20032;-83
2024/01/12 11:35:19;;;;;;;15.65;7.22;;;4.60;99.90;;;;;;5056092;28;20091;-83
2024/01/12 11:37:47;;;;;;;15.55;6.88;;;4.70;99.90;;;;;;5076235;28;20043;-83
2024/01/12 11:40:15;;;;;;;12.23;6.45;;;4.70;99.90;;;;;;5077623;28;20476;-83
2024/01/12 11:42:43;;;;;;;13.27;5.97;;;4.70;99.90;;;;;;5076819;28;20023;-83
2024/01/12 11:45:13;;;;;;;11.40;5.80;;;4.70;99.90;;;;;;5076325;28;20369;-84
2024/01/12 11:47:43;;;;;;;12.27;6.55;;;4.70;99.90;;;;;;5076576;28;20028;-83
2024/01/12 11:50:11;;;;;;;13.20;6.13;;;4.70;99.90;;;;;;5059762;28;20110;-84
2024/01/12 11:52:38;;;;;;;10.75;5.80;;;4.70;99.90;;;;;;5076002;28;20139;-84
2024/01/12 11:55:07;;;;;;;13.52;5.95;;;4.70;99.90;;;;;;5076213;28;20103;-83
2024/01/12 11:57:35;;;;;;;13.27;6.00;;;4.70;99.90;;;;;;5060398;28;20051;-82
2024/01/12 12:00:02;;;;;;;12.20;5.80;;;4.80;99.90;;;;;;5076897;28;20048;-82
2024/01/12 12:02:28;;;;;;;12.38;6.20;;;4.70;99.90;;;;;;5076334;28;20111;-83
2024/01/12 12:04:54;;;;;;;11.80;5.57;;;4.70;99.90;;;;;;5078025;28;20065;-84
2024/01/12 12:07:27;;;;;;;12.30;5.75;;;4.80;99.90;;;;;;5076387;28;20063;-83
2024/01/12 12:09:53;;;;;;;13.00;6.03;;;4.80;99.90;;;;;;5077128;28;20032;-83
2024/01/12 12:12:22;;;;;;;14.00;5.97;;;4.80;99.90;;;;;;5059755;28;20024;-83
2024/01/12 12:15:08;;;;;;;9.80;4.90;;;4.90;99.90;;;;;;5077801;28;20112;-83
2024/01/12 12:17:38;;;;;;;12.50;5.75;;;4.90;99.90;;;;;;5077062;28;20032;-83
2024/01/12 12:20:10;;;;;;;14.05;5.72;;;4.90;99.90;;;;;;5076646;28;20024;-83
2024/01/12 12:22:40;;;;;;;11.25;5.18;;;4.90;99.90;;;;;;5067113;28;20127;-83
2024/01/12 12:25:10;;;;;;;10.85;5.40;;;4.90;99.90;;;;;;5081845;28;20076;-83
2024/01/12 12:27:40;;;;;;;12.55;6.22;;;4.90;99.90;;;;;;5083218;28;20012;-84
2024/01/12 12:30:15;;;;;;;9.90;5.72;;;4.90;99.90;;;;;;5098945;28;20043;-84
2024/01/12 12:32:43;;;;;;;12.25;5.22;;;4.90;99.90;;;;;;5067769;28;20047;-83
2024/01/12 12:35:13;;;;;;;13.70;6.20;;;4.90;99.90;;;;;;5075513;28;20029;-84
2024/01/12 12:37:39;;;;;;;13.32;6.28;;;5.00;99.90;;;;;;5058223;28;20052;-85
2024/01/12 12:40:07;;;;;;;14.35;5.68;;;5.00;99.90;;;;;;5058170;28;20021;-84
2024/01/12 12:42:33;;;;;;;13.38;5.13;;;5.00;99.90;;;;;;5074848;28;20029;-84